createdAt,value
2017-02-23T00:00:26.027Z,22.57
2017-02-23T00:01:26.488Z,22.57
2017-02-23T00:02:25.593Z,22.52
2017-02-23T00:03:26.697Z,22.61
2017-02-23T00:04:26.444Z,22.61
2017-02-23T00:05:26.415Z,22.6
2017-02-23T00:06:26.112Z,22.52
2017-02-23T00:07:25.630Z,22.57
2017-02-23T00:08:26.417Z,22.55
2017-02-23T00:09:26.429Z,22.64
2017-02-23T00:10:26.040Z,22.55
2017-02-23T00:11:26.488Z,22.57
2017-02-23T00:12:26.463Z,22.55
2017-02-23T00:13:26.502Z,22.55
2017-02-23T00:14:26.508Z,22.51
2017-02-23T00:15:26.121Z,22.49
2017-02-23T00:16:26.619Z,22.46
2017-02-23T00:17:26.476Z,22.42
2017-02-23T00:18:26.485Z,22.47
2017-02-23T00:19:26.491Z,22.54
2017-02-23T00:20:26.550Z,22.52
2017-02-23T00:21:26.167Z,22.51
2017-02-23T00:22:26.167Z,22.47
2017-02-23T00:23:26.513Z,22.49
2017-02-23T00:24:26.573Z,22.54
2017-02-23T00:25:26.533Z,22.52
2017-02-23T00:26:26.531Z,22.51
2017-02-23T00:27:26.608Z,22.49
2017-02-23T00:28:26.598Z,22.62
2017-02-23T00:29:26.650Z,22.58
2017-02-23T00:30:26.572Z,22.54
2017-02-23T00:31:26.564Z,22.47
2017-02-23T00:32:26.227Z,22.58
2017-02-23T00:33:26.689Z,22.54
2017-02-23T00:34:26.652Z,22.47
2017-02-23T00:35:26.602Z,22.49
2017-02-23T00:36:26.651Z,22.58
2017-02-23T00:37:26.514Z,22.51
2017-02-23T00:38:26.656Z,22.49
2017-02-23T00:39:26.683Z,22.47
2017-02-23T00:40:26.622Z,22.45
2017-02-23T00:41:26.678Z,22.46
2017-02-23T00:42:26.646Z,22.57
2017-02-23T00:43:26.257Z,22.54
2017-02-23T00:44:26.746Z,22.45
2017-02-23T00:45:27.406Z,22.49
2017-02-23T00:46:26.727Z,22.49
2017-02-23T00:47:26.676Z,22.42
2017-02-23T00:48:26.731Z,22.4
2017-02-23T00:49:26.337Z,22.46
2017-02-23T00:50:26.733Z,22.46
2017-02-23T00:51:26.740Z,22.46
2017-02-23T00:52:26.723Z,22.4
2017-02-23T00:53:26.801Z,22.43
2017-02-23T00:54:26.316Z,22.47
2017-02-23T00:55:26.727Z,22.4
2017-02-23T00:56:26.783Z,22.45
2017-02-23T00:57:26.786Z,22.3
2017-02-23T00:58:26.785Z,22.4
2017-02-23T00:59:26.847Z,22.35
2017-02-23T01:00:26.745Z,22.45
2017-02-23T01:01:26.367Z,22.4
2017-02-23T01:02:26.767Z,22.45
2017-02-23T01:03:26.769Z,22.37
2017-02-23T01:04:26.897Z,22.37
2017-02-23T01:05:26.879Z,22.42
2017-02-23T01:06:26.793Z,22.42
2017-02-23T01:07:26.792Z,22.4
2017-02-23T01:08:26.844Z,22.4
2017-02-23T01:09:26.868Z,22.43
2017-02-23T01:10:26.811Z,22.45
2017-02-23T01:11:26.470Z,22.37
2017-02-23T01:12:26.872Z,22.37
2017-02-23T01:13:26.831Z,22.43
2017-02-23T01:14:26.892Z,22.4
2017-02-23T01:15:26.842Z,22.42
2017-02-23T01:16:26.498Z,22.43
2017-02-23T01:17:26.857Z,22.37
2017-02-23T01:18:26.869Z,22.27
2017-02-23T01:19:26.868Z,22.39
2017-02-23T01:20:26.875Z,22.39
2017-02-23T01:21:26.988Z,22.4
2017-02-23T01:22:26.535Z,22.3
2017-02-23T01:23:26.939Z,22.31
2017-02-23T01:24:26.946Z,22.33
2017-02-23T01:25:27.006Z,22.42
2017-02-23T01:26:26.906Z,22.31
2017-02-23T01:27:26.927Z,22.27
2017-02-23T01:28:26.574Z,22.3
2017-02-23T01:29:26.541Z,22.42
2017-02-23T01:30:27.046Z,22.31
2017-02-23T01:31:27.035Z,22.31
2017-02-23T01:32:27.048Z,22.4
2017-02-23T01:33:26.955Z,22.3
2017-02-23T01:34:26.957Z,22.35
2017-02-23T01:35:26.979Z,22.35
2017-02-23T01:36:26.632Z,22.25
2017-02-23T01:37:27.078Z,22.36
2017-02-23T01:38:27.034Z,22.33
2017-02-23T01:39:26.594Z,22.28
2017-02-23T01:40:27.044Z,22.24
2017-02-23T01:41:27.102Z,22.27
2017-02-23T01:42:27.073Z,22.25
2017-02-23T01:43:27.014Z,22.3
2017-02-23T01:44:27.080Z,22.28
2017-02-23T01:45:26.691Z,22.27
2017-02-23T01:46:27.411Z,22.31
2017-02-23T01:47:27.090Z,22.31
2017-02-23T01:48:27.148Z,22.24
2017-02-23T01:49:27.099Z,22.27
2017-02-23T01:50:27.061Z,22.28
2017-02-23T01:51:27.132Z,22.27
2017-02-23T01:52:27.069Z,22.25
2017-02-23T01:53:26.982Z,22.27
2017-02-23T01:54:27.142Z,22.28
2017-02-23T01:55:27.086Z,22.31
2017-02-23T01:56:27.201Z,22.37
2017-02-23T01:57:27.171Z,22.37
2017-02-23T01:58:27.105Z,22.3
2017-02-23T01:59:26.825Z,22.39
2017-02-23T02:00:27.123Z,22.3
2017-02-23T02:01:27.136Z,22.25
2017-02-23T02:02:27.205Z,22.28
2017-02-23T02:03:27.187Z,22.35
2017-02-23T02:04:26.752Z,22.31
2017-02-23T02:05:26.817Z,22.22
2017-02-23T02:06:27.165Z,22.28
2017-02-23T02:07:26.815Z,22.24
2017-02-23T02:08:27.220Z,22.22
2017-02-23T02:09:27.188Z,22.3
2017-02-23T02:10:26.464Z,22.25
2017-02-23T02:11:27.496Z,22.27
2017-02-23T02:12:27.200Z,22.24
2017-02-23T02:13:26.823Z,22.28
2017-02-23T02:14:27.330Z,22.25
2017-02-23T02:15:27.212Z,22.25
2017-02-23T02:16:27.221Z,22.21
2017-02-23T02:17:26.880Z,22.24
2017-02-23T02:18:27.234Z,22.25
2017-02-23T02:19:26.847Z,22.27
2017-02-23T02:20:27.644Z,22.2
2017-02-23T02:21:27.310Z,22.27
2017-02-23T02:22:27.285Z,22.24
2017-02-23T02:23:26.921Z,22.31
2017-02-23T02:24:27.382Z,22.25
2017-02-23T02:25:27.301Z,22.22
2017-02-23T02:26:26.889Z,22.18
2017-02-23T02:27:26.943Z,22.22
2017-02-23T02:28:27.303Z,22.25
2017-02-23T02:29:27.351Z,22.24
2017-02-23T02:30:27.427Z,22.25
2017-02-23T02:31:27.327Z,22.18
2017-02-23T02:32:27.323Z,22.28
2017-02-23T02:33:26.984Z,22.22
2017-02-23T02:34:27.532Z,22.21
2017-02-23T02:35:27.362Z,22.21
2017-02-23T02:36:27.002Z,22.28
2017-02-23T02:37:26.954Z,22.21
2017-02-23T02:38:27.426Z,22.18
2017-02-23T02:39:27.419Z,22.21
2017-02-23T02:40:27.468Z,22.2
2017-02-23T02:41:27.444Z,22.21
2017-02-23T02:42:27.455Z,22.12
2017-02-23T02:43:27.404Z,22.21
2017-02-23T02:44:27.010Z,22.12
2017-02-23T02:45:27.009Z,22.27
2017-02-23T02:46:27.467Z,22.21
2017-02-23T02:47:27.464Z,22.17
2017-02-23T02:48:27.029Z,22.18
2017-02-23T02:49:27.475Z,22.2
2017-02-23T02:50:27.495Z,22.18
2017-02-23T02:51:27.139Z,22.21
2017-02-23T02:52:27.494Z,22.21
2017-02-23T02:53:27.501Z,22.24
2017-02-23T02:54:27.457Z,22.2
2017-02-23T02:55:27.462Z,22.17
2017-02-23T02:56:27.469Z,22.15
2017-02-23T02:57:27.527Z,22.17
2017-02-23T02:58:27.496Z,22.2
2017-02-23T02:59:27.096Z,22.2
2017-02-23T03:00:27.548Z,22.21
2017-02-23T03:01:27.548Z,22.17
2017-02-23T03:02:27.166Z,22.2
2017-02-23T03:03:27.613Z,22.2
2017-02-23T03:04:27.533Z,22.18
2017-02-23T03:05:27.586Z,22.2
2017-02-23T03:06:27.530Z,22.1
2017-02-23T03:07:27.588Z,22.14
2017-02-23T03:08:27.592Z,22.22
2017-02-23T03:09:27.599Z,22.21
2017-02-23T03:10:27.562Z,22.21
2017-02-23T03:11:27.575Z,22.17
2017-02-23T03:12:27.613Z,22.25
2017-02-23T03:13:27.633Z,22.27
2017-02-23T03:14:27.639Z,22.21
2017-02-23T03:15:27.635Z,22.24
2017-02-23T03:16:27.700Z,22.24
2017-02-23T03:17:27.624Z,22.22
2017-02-23T03:18:27.601Z,22.17
2017-02-23T03:19:27.614Z,22.21
2017-02-23T03:20:27.717Z,22.28
2017-02-23T03:21:27.274Z,22.17
2017-02-23T03:22:27.681Z,22.22
2017-02-23T03:23:27.238Z,22.22
2017-02-23T03:24:27.346Z,22.27
2017-02-23T03:25:28.096Z,22.22
2017-02-23T03:26:27.654Z,22.2
2017-02-23T03:27:27.312Z,22.21
2017-02-23T03:28:27.680Z,22.18
2017-02-23T03:29:27.681Z,22.24
2017-02-23T03:30:27.737Z,22.18
2017-02-23T03:31:28.037Z,22.21
2017-02-23T03:32:27.794Z,22.12
2017-02-23T03:33:27.351Z,22.12
2017-02-23T03:34:27.303Z,22.17
2017-02-23T03:35:27.710Z,22.18
2017-02-23T03:36:27.725Z,22.12
2017-02-23T03:37:27.788Z,22.12
2017-02-23T03:38:27.776Z,22.15
2017-02-23T03:39:27.353Z,22.09
2017-02-23T03:40:27.350Z,22.12
2017-02-23T03:41:27.748Z,22.2
2017-02-23T03:42:27.856Z,22.21
2017-02-23T03:43:27.820Z,22.12
2017-02-23T03:44:27.813Z,22.12
2017-02-23T03:45:27.778Z,22.09
2017-02-23T03:46:27.823Z,22.14
2017-02-23T03:47:27.798Z,22.21
2017-02-23T03:48:27.791Z,22.14
2017-02-23T03:49:28.142Z,22.18
2017-02-23T03:50:27.811Z,22.18
2017-02-23T03:51:27.859Z,22.12
2017-02-23T03:52:27.875Z,22.2
2017-02-23T03:53:27.871Z,22.12
2017-02-23T03:54:27.890Z,22.17
2017-02-23T03:55:27.896Z,22.14
2017-02-23T03:56:27.440Z,22.12
2017-02-23T03:57:27.851Z,22.06
2017-02-23T03:58:27.849Z,22.14
2017-02-23T03:59:27.486Z,22.03
2017-02-23T04:00:27.918Z,22.17
2017-02-23T04:01:27.924Z,22.17
2017-02-23T04:02:27.086Z,22.15
2017-02-23T04:03:27.932Z,22.17
2017-02-23T04:04:28.039Z,22.14
2017-02-23T04:05:27.962Z,22.12
2017-02-23T04:06:28.016Z,22.14
2017-02-23T04:07:27.578Z,22.09
2017-02-23T04:08:27.568Z,22.17
2017-02-23T04:09:27.521Z,22.03
2017-02-23T04:10:27.975Z,22.06
2017-02-23T04:11:28.230Z,22.12
2017-02-23T04:12:28.039Z,22.09
2017-02-23T04:13:27.944Z,22.06
2017-02-23T04:14:27.953Z,22.12
2017-02-23T04:15:28.080Z,22.17
2017-02-23T04:16:28.014Z,22.09
2017-02-23T04:17:27.178Z,22.12
2017-02-23T04:18:28.135Z,22.09
2017-02-23T04:19:27.986Z,22.12
2017-02-23T04:20:27.995Z,22.05
2017-02-23T04:21:28.047Z,22.09
2017-02-23T04:22:28.058Z,22.07
2017-02-23T04:23:28.008Z,22.07
2017-02-23T04:24:28.063Z,22.09
2017-02-23T04:25:27.682Z,22.14
2017-02-23T04:26:27.734Z,22.09
2017-02-23T04:27:27.730Z,22.14
2017-02-23T04:28:28.087Z,22.06
2017-02-23T04:29:28.087Z,22.12
2017-02-23T04:30:28.047Z,22.17
2017-02-23T04:31:28.156Z,22.14
2017-02-23T04:32:28.160Z,22.18
2017-02-23T04:33:28.131Z,22.15
2017-02-23T04:34:28.121Z,22.15
2017-02-23T04:35:27.743Z,22.15
2017-02-23T04:36:28.081Z,22.12
2017-02-23T04:37:27.793Z,22.17
2017-02-23T04:38:28.244Z,22.05
2017-02-23T04:39:28.105Z,22.12
2017-02-23T04:40:28.153Z,22.14
2017-02-23T04:41:28.132Z,22.07
2017-02-23T04:42:27.778Z,22.06
2017-02-23T04:43:28.189Z,22.07
2017-02-23T04:44:28.140Z,22.07
2017-02-23T04:45:28.162Z,22.06
2017-02-23T04:46:28.147Z,22.12
2017-02-23T04:47:27.817Z,22.06
2017-02-23T04:48:27.756Z,22.06
2017-02-23T04:49:27.814Z,22.14
2017-02-23T04:50:28.180Z,22.07
2017-02-23T04:51:28.176Z,22.1
2017-02-23T04:52:28.185Z,22.12
2017-02-23T04:53:28.184Z,22.14
2017-02-23T04:54:28.190Z,22.1
2017-02-23T04:55:27.816Z,22.15
2017-02-23T04:56:28.318Z,22.15
2017-02-23T04:57:28.212Z,22.15
2017-02-23T04:58:28.268Z,22.15
2017-02-23T04:59:28.272Z,22.12
2017-02-23T05:00:28.226Z,22.12
2017-02-23T05:01:28.318Z,22.12
2017-02-23T05:02:27.853Z,22.15
2017-02-23T05:03:28.660Z,22.15
2017-02-23T05:04:28.253Z,22.14
2017-02-23T05:05:28.319Z,22.1
2017-02-23T05:06:27.895Z,22.14
2017-02-23T05:07:28.282Z,22.14
2017-02-23T05:08:27.977Z,22.12
2017-02-23T05:09:28.285Z,22.15
2017-02-23T05:10:28.287Z,22.07
2017-02-23T05:11:28.303Z,22.15
2017-02-23T05:12:28.305Z,22.18
2017-02-23T05:13:28.323Z,22.18
2017-02-23T05:14:28.311Z,22.17
2017-02-23T05:15:28.389Z,22.09
2017-02-23T05:16:28.379Z,22.14
2017-02-23T05:17:28.380Z,22.14
2017-02-23T05:18:28.333Z,22.03
2017-02-23T05:19:28.393Z,22.1
2017-02-23T05:20:27.957Z,22.12
2017-02-23T05:21:27.964Z,22.05
2017-02-23T05:22:27.964Z,22.17
2017-02-23T05:23:28.367Z,22.12
2017-02-23T05:24:28.030Z,22.18
2017-02-23T05:25:28.377Z,22.18
2017-02-23T05:26:28.055Z,22.17
2017-02-23T05:27:28.393Z,22.2
2017-02-23T05:28:28.455Z,22.18
2017-02-23T05:29:28.404Z,22.2
2017-02-23T05:30:28.421Z,22.21
2017-02-23T05:31:28.776Z,22.12
2017-02-23T05:32:28.528Z,22.15
2017-02-23T05:33:28.430Z,22.14
2017-02-23T05:34:28.433Z,22.12
2017-02-23T05:35:28.508Z,22.17
2017-02-23T05:36:28.493Z,22.22
2017-02-23T05:37:28.506Z,22.17
2017-02-23T05:38:28.461Z,22.18
2017-02-23T05:39:28.125Z,22.15
2017-02-23T05:40:28.528Z,22.14
2017-02-23T05:41:28.522Z,22.18
2017-02-23T05:42:28.479Z,22.17
2017-02-23T05:43:28.539Z,22.2
2017-02-23T05:44:28.142Z,22.14
2017-02-23T05:45:28.798Z,22.15
2017-02-23T05:46:28.516Z,22.14
2017-02-23T05:47:28.173Z,22.17
2017-02-23T05:48:28.176Z,22.17
2017-02-23T05:49:28.823Z,22.14
2017-02-23T05:50:28.636Z,22.09
2017-02-23T05:51:28.591Z,22.05
2017-02-23T05:52:28.692Z,22.07
2017-02-23T05:53:28.600Z,22.15
2017-02-23T05:54:28.887Z,22.17
2017-02-23T05:55:28.225Z,22.21
2017-02-23T05:56:28.183Z,22.25
2017-02-23T05:57:28.182Z,22.17
2017-02-23T05:58:28.593Z,22.21
2017-02-23T05:59:28.633Z,22.28
2017-02-23T06:00:28.651Z,22.21
2017-02-23T06:01:28.645Z,22.22
2017-02-23T06:02:28.659Z,22.18
2017-02-23T06:03:28.608Z,22.25
2017-02-23T06:04:28.664Z,22.17
2017-02-23T06:05:28.631Z,22.18
2017-02-23T06:06:28.633Z,22.17
2017-02-23T06:07:28.682Z,22.21
2017-02-23T06:08:28.649Z,22.18
2017-02-23T06:09:28.642Z,22.2
2017-02-23T06:10:28.721Z,22.27
2017-02-23T06:11:28.761Z,22.18
2017-02-23T06:12:28.668Z,22.28
2017-02-23T06:13:28.964Z,22.24
2017-02-23T06:14:28.692Z,22.2
2017-02-23T06:15:28.808Z,22.22
2017-02-23T06:16:28.784Z,22.21
2017-02-23T06:17:28.701Z,22.17
2017-02-23T06:18:28.813Z,22.21
2017-02-23T06:19:28.758Z,22.25
2017-02-23T06:20:28.707Z,22.2
2017-02-23T06:21:28.451Z,22.15
2017-02-23T06:22:28.721Z,22.15
2017-02-23T06:23:28.748Z,22.21
2017-02-23T06:24:28.804Z,22.2
2017-02-23T06:25:28.840Z,22.21
2017-02-23T06:26:28.795Z,22.22
2017-02-23T06:27:28.752Z,22.22
2017-02-23T06:28:28.418Z,22.21
2017-02-23T06:29:28.773Z,22.25
2017-02-23T06:30:28.770Z,22.2
2017-02-23T06:31:28.829Z,22.24
2017-02-23T06:32:28.783Z,22.21
2017-02-23T06:33:28.889Z,22.25
2017-02-23T06:34:28.454Z,22.27
2017-02-23T06:35:28.909Z,22.21
2017-02-23T06:36:28.466Z,22.21
2017-02-23T06:37:28.812Z,22.25
2017-02-23T06:38:28.534Z,22.25
2017-02-23T06:39:28.831Z,22.27
2017-02-23T06:40:28.880Z,22.22
2017-02-23T06:41:28.943Z,22.2
2017-02-23T06:42:28.889Z,22.2
2017-02-23T06:43:28.865Z,22.22
2017-02-23T06:44:28.899Z,22.22
2017-02-23T06:45:28.131Z,22.27
2017-02-23T06:46:28.877Z,22.2
2017-02-23T06:47:28.929Z,22.22
2017-02-23T06:48:28.881Z,22.21
2017-02-23T06:49:28.897Z,22.2
2017-02-23T06:50:28.970Z,22.27
2017-02-23T06:51:28.902Z,22.25
2017-02-23T06:52:28.952Z,22.21
2017-02-23T06:53:28.964Z,22.17
2017-02-23T06:54:28.173Z,22.25
2017-02-23T06:55:28.926Z,22.25
2017-02-23T06:56:28.581Z,22.21
2017-02-23T06:57:28.635Z,22.18
2017-02-23T06:58:29.037Z,22.17
2017-02-23T06:59:28.994Z,22.21
2017-02-23T07:00:28.608Z,22.22
2017-02-23T07:01:28.570Z,22.24
2017-02-23T07:02:28.976Z,22.25
2017-02-23T07:03:28.630Z,22.21
2017-02-23T07:04:29.326Z,22.22
2017-02-23T07:05:28.590Z,22.17
2017-02-23T07:06:28.987Z,22.2
2017-02-23T07:07:28.705Z,22.25
2017-02-23T07:08:29.001Z,22.35
2017-02-23T07:09:29.007Z,22.25
2017-02-23T07:10:28.646Z,22.25
2017-02-23T07:11:28.736Z,22.22
2017-02-23T07:12:28.685Z,22.28
2017-02-23T07:13:28.238Z,22.33
2017-02-23T07:14:28.719Z,22.28
2017-02-23T07:15:29.040Z,22.21
2017-02-23T07:16:29.099Z,22.22
2017-02-23T07:17:29.101Z,22.25
2017-02-23T07:18:29.106Z,22.25
2017-02-23T07:19:29.134Z,22.21
2017-02-23T07:20:29.184Z,22.2
2017-02-23T07:21:29.081Z,22.22
2017-02-23T07:22:29.087Z,22.21
2017-02-23T07:23:29.139Z,22.17
2017-02-23T07:24:28.406Z,22.24
2017-02-23T07:25:28.763Z,22.22
2017-02-23T07:26:28.711Z,22.24
2017-02-23T07:27:29.163Z,22.27
2017-02-23T07:28:29.118Z,22.21
2017-02-23T07:29:29.173Z,22.22
2017-02-23T07:30:28.791Z,22.24
2017-02-23T07:31:29.211Z,22.28
2017-02-23T07:32:29.227Z,22.25
2017-02-23T07:33:29.251Z,22.35
2017-02-23T07:34:29.225Z,22.39
2017-02-23T07:35:29.165Z,22.43
2017-02-23T07:36:29.176Z,22.58
2017-02-23T07:37:29.175Z,22.65
2017-02-23T07:38:28.794Z,22.8
2017-02-23T07:39:29.242Z,22.91
2017-02-23T07:40:29.248Z,23.09
2017-02-23T07:41:29.208Z,23.07
2017-02-23T07:42:29.257Z,23.19
2017-02-23T07:43:29.331Z,23.32
2017-02-23T07:44:29.264Z,23.46
2017-02-23T07:45:29.232Z,23.58
2017-02-23T07:46:29.234Z,23.57
2017-02-23T07:47:29.283Z,23.73
2017-02-23T07:48:29.250Z,23.79
2017-02-23T07:49:29.246Z,23.88
2017-02-23T07:50:29.300Z,23.87
2017-02-23T07:51:29.272Z,24.02
2017-02-23T07:52:29.317Z,24.13
2017-02-23T07:53:29.272Z,24.24
2017-02-23T07:54:29.035Z,24.22
2017-02-23T07:55:29.348Z,24.22
2017-02-23T07:56:28.962Z,24.27
2017-02-23T07:57:29.299Z,24.28
2017-02-23T07:58:29.308Z,24.3
2017-02-23T07:59:29.307Z,24.39
2017-02-23T08:00:29.372Z,24.49
2017-02-23T08:01:29.320Z,24.43
2017-02-23T08:02:29.427Z,24.43
2017-02-23T08:03:29.344Z,24.5
2017-02-23T08:04:29.395Z,24.49
2017-02-23T08:05:29.421Z,24.58
2017-02-23T08:06:29.461Z,24.6
2017-02-23T08:07:28.980Z,24.52
2017-02-23T08:08:29.076Z,24.64
2017-02-23T08:09:29.425Z,24.67
2017-02-23T08:10:29.401Z,24.61
2017-02-23T08:11:29.049Z,24.69
2017-02-23T08:12:29.408Z,24.67
2017-02-23T08:13:29.407Z,24.69
2017-02-23T08:14:29.469Z,24.76
2017-02-23T08:15:29.481Z,24.69
2017-02-23T08:16:29.474Z,24.69
2017-02-23T08:17:29.489Z,24.77
2017-02-23T08:18:29.154Z,24.69
2017-02-23T08:19:29.510Z,24.69
2017-02-23T08:20:29.502Z,24.71
2017-02-23T08:21:29.109Z,24.77
2017-02-23T08:22:29.463Z,24.73
2017-02-23T08:23:29.523Z,24.77
2017-02-23T08:24:29.098Z,24.71
2017-02-23T08:25:29.485Z,24.68
2017-02-23T08:26:29.201Z,24.65
2017-02-23T08:27:29.549Z,24.8
2017-02-23T08:28:29.166Z,24.9
2017-02-23T08:29:29.534Z,24.81
2017-02-23T08:30:29.186Z,24.81
2017-02-23T08:31:29.873Z,24.76
2017-02-23T08:32:29.534Z,24.83
2017-02-23T08:33:29.595Z,24.84
2017-02-23T08:34:29.611Z,24.85
2017-02-23T08:35:29.555Z,24.84
2017-02-23T08:36:29.659Z,24.84
2017-02-23T08:37:29.278Z,24.88
2017-02-23T08:38:29.583Z,24.9
2017-02-23T08:39:29.242Z,24.88
2017-02-23T08:40:29.194Z,25
2017-02-23T08:41:29.655Z,24.95
2017-02-23T08:42:29.758Z,24.98
2017-02-23T08:43:29.626Z,24.96
2017-02-23T08:44:29.276Z,25
2017-02-23T08:45:29.624Z,25.02
2017-02-23T08:46:29.651Z,24.99
2017-02-23T08:47:29.643Z,24.91
2017-02-23T08:48:29.302Z,24.98
2017-02-23T08:49:29.274Z,25.03
2017-02-23T08:50:29.701Z,25.03
2017-02-23T08:51:29.693Z,24.98
2017-02-23T08:52:29.778Z,25
2017-02-23T08:53:28.949Z,24.99
2017-02-23T08:54:29.735Z,24.98
2017-02-23T08:55:29.752Z,24.99
2017-02-23T08:56:29.714Z,24.91
2017-02-23T08:57:29.815Z,24.91
2017-02-23T08:58:29.334Z,24.87
2017-02-23T08:59:29.386Z,24.95
2017-02-23T09:00:29.730Z,24.98
2017-02-23T09:01:29.760Z,24.84
2017-02-23T09:02:29.415Z,24.96
2017-02-23T09:03:29.410Z,25.02
2017-02-23T09:04:29.466Z,24.91
2017-02-23T09:05:29.375Z,24.9
2017-02-23T09:06:31.082Z,24.93
2017-02-23T09:07:29.441Z,24.88
2017-02-23T09:08:29.787Z,24.95
2017-02-23T09:09:29.844Z,24.9
2017-02-23T09:10:29.910Z,25.02
2017-02-23T09:11:29.820Z,24.99
2017-02-23T09:12:29.422Z,24.9
2017-02-23T09:13:29.881Z,24.98
2017-02-23T09:14:29.830Z,24.96
2017-02-23T09:15:29.960Z,24.85
2017-02-23T09:16:30.101Z,24.99
2017-02-23T09:17:29.906Z,25.02
2017-02-23T09:18:29.857Z,24.99
2017-02-23T09:19:29.928Z,25.05
2017-02-23T09:20:30.086Z,25.02
2017-02-23T09:21:29.879Z,25.05
2017-02-23T09:22:29.937Z,25.23
2017-02-23T09:23:29.902Z,25.06
2017-02-23T09:24:29.953Z,24.99
2017-02-23T09:25:30.012Z,25
2017-02-23T09:26:29.918Z,25.05
2017-02-23T09:27:29.981Z,25.06
2017-02-23T09:28:29.633Z,25.08
2017-02-23T09:29:29.989Z,25.09
2017-02-23T09:30:29.955Z,25.14
2017-02-23T09:31:29.964Z,25.15
2017-02-23T09:32:29.959Z,25.05
2017-02-23T09:33:30.061Z,25.06
2017-02-23T09:34:29.578Z,25.09
2017-02-23T09:35:29.989Z,25.05
2017-02-23T09:36:30.089Z,25.18
2017-02-23T09:37:29.598Z,25.14
2017-02-23T09:38:30.050Z,25.24
2017-02-23T09:39:29.733Z,25.15
2017-02-23T09:40:30.018Z,25.14
2017-02-23T09:41:30.072Z,25.06
2017-02-23T09:42:29.633Z,25.09
2017-02-23T09:43:30.053Z,25.09
2017-02-23T09:44:30.153Z,25.13
2017-02-23T09:45:30.152Z,25.06
2017-02-23T09:46:30.059Z,25.18
2017-02-23T09:47:30.088Z,25.14
2017-02-23T09:48:30.074Z,25.09
2017-02-23T09:49:30.095Z,25.21
2017-02-23T09:50:30.087Z,25.17
2017-02-23T09:51:30.141Z,25.24
2017-02-23T09:52:30.206Z,25.18
2017-02-23T09:53:30.115Z,25.27
2017-02-23T09:54:30.122Z,25.2
2017-02-23T09:55:30.134Z,25.21
2017-02-23T09:56:30.288Z,25.25
2017-02-23T09:57:30.145Z,25.24
2017-02-23T09:58:30.242Z,25.2
2017-02-23T09:59:30.152Z,25.2
2017-02-23T10:00:30.160Z,25.23
2017-02-23T10:01:30.217Z,25.2
2017-02-23T10:02:30.226Z,25.21
2017-02-23T10:03:30.205Z,25.28
2017-02-23T10:04:30.195Z,25.18
2017-02-23T10:05:30.242Z,25.27
2017-02-23T10:06:30.261Z,25.24
2017-02-23T10:07:29.876Z,25.25
2017-02-23T10:08:30.337Z,25.42
2017-02-23T10:09:29.880Z,25.43
2017-02-23T10:10:30.277Z,25.33
2017-02-23T10:11:29.843Z,25.4
2017-02-23T10:12:30.346Z,25.39
2017-02-23T10:13:30.351Z,25.42
2017-02-23T10:14:30.273Z,25.43
2017-02-23T10:15:30.364Z,25.23
2017-02-23T10:16:30.454Z,25.17
2017-02-23T10:17:30.328Z,25.18
2017-02-23T10:18:30.000Z,25.17
2017-02-23T10:19:30.361Z,25.18
2017-02-23T10:20:30.317Z,25.25
2017-02-23T10:21:29.915Z,25.21
2017-02-23T10:22:30.394Z,25.23
2017-02-23T10:23:30.374Z,25.28
2017-02-23T10:24:30.434Z,25.35
2017-02-23T10:25:30.352Z,25.23
2017-02-23T10:26:29.959Z,25.36
2017-02-23T10:27:30.059Z,25.32
2017-02-23T10:28:30.464Z,25.35
2017-02-23T10:29:30.371Z,25.23
2017-02-23T10:30:30.484Z,25.23
2017-02-23T10:31:30.447Z,25.21
2017-02-23T10:32:30.391Z,25.32
2017-02-23T10:33:31.214Z,25.25
2017-02-23T10:34:30.414Z,25.24
2017-02-23T10:35:30.723Z,25.24
2017-02-23T10:36:30.478Z,25.25
2017-02-23T10:37:30.544Z,25.2
2017-02-23T10:38:30.454Z,25.2
2017-02-23T10:39:30.448Z,25.2
2017-02-23T10:40:30.517Z,25.25
2017-02-23T10:41:30.160Z,25.42
2017-02-23T10:42:30.081Z,25.4
2017-02-23T10:43:31.488Z,25.36
2017-02-23T10:44:30.537Z,25.38
2017-02-23T10:45:30.543Z,25.24
2017-02-23T10:46:30.510Z,25.43
2017-02-23T10:47:29.713Z,25.21
2017-02-23T10:48:30.513Z,25.33
2017-02-23T10:49:30.621Z,25.27
2017-02-23T10:50:30.151Z,25.2
2017-02-23T10:51:30.581Z,25.23
2017-02-23T10:52:30.149Z,25.3
2017-02-23T10:53:30.562Z,25.17
2017-02-23T10:54:30.611Z,25.2
2017-02-23T10:55:30.672Z,25.25
2017-02-23T10:56:30.219Z,25.36
2017-02-23T10:57:30.624Z,25.28
2017-02-23T10:58:30.636Z,25.23
2017-02-23T10:59:30.642Z,25.38
2017-02-23T11:00:30.658Z,25.36
2017-02-23T11:01:30.709Z,25.35
2017-02-23T11:02:30.690Z,25.38
2017-02-23T11:03:30.677Z,25.32
2017-02-23T11:04:30.633Z,25.39
2017-02-23T11:05:30.642Z,25.45
2017-02-23T11:06:30.244Z,25.4
2017-02-23T11:07:30.750Z,25.38
2017-02-23T11:08:30.726Z,25.36
2017-02-23T11:09:30.719Z,25.39
2017-02-23T11:10:30.670Z,25.33
2017-02-23T11:11:30.353Z,25.38
2017-02-23T11:12:30.702Z,25.3
2017-02-23T11:13:30.426Z,25.3
2017-02-23T11:14:30.424Z,25.23
2017-02-23T11:15:30.781Z,25.18
2017-02-23T11:16:30.785Z,25.35
2017-02-23T11:17:30.730Z,25.28
2017-02-23T11:18:30.731Z,25.2
2017-02-23T11:19:30.753Z,25.25
2017-02-23T11:20:30.846Z,25.33
2017-02-23T11:21:30.852Z,25.24
2017-02-23T11:22:30.812Z,25.23
2017-02-23T11:23:30.818Z,25.33
2017-02-23T11:24:30.781Z,25.23
2017-02-23T11:25:30.845Z,25.27
2017-02-23T11:26:30.791Z,25.25
2017-02-23T11:27:30.896Z,25.23
2017-02-23T11:28:30.867Z,25.42
2017-02-23T11:29:30.877Z,25.28
2017-02-23T11:30:30.820Z,25.3
2017-02-23T11:31:30.884Z,25.18
2017-02-23T11:32:30.949Z,25.2
2017-02-23T11:33:30.498Z,25.28
2017-02-23T11:34:30.897Z,25.24
2017-02-23T11:35:30.857Z,25.33
2017-02-23T11:36:30.967Z,25.21
2017-02-23T11:37:30.484Z,25.18
2017-02-23T11:38:30.932Z,25.25
2017-02-23T11:39:30.887Z,25.23
2017-02-23T11:40:30.892Z,25.35
2017-02-23T11:41:30.961Z,25.36
2017-02-23T11:42:30.973Z,25.3
2017-02-23T11:43:30.917Z,25.25
2017-02-23T11:44:30.924Z,25.36
2017-02-23T11:45:30.636Z,25.39
2017-02-23T11:46:30.989Z,25.46
2017-02-23T11:47:31.353Z,25.4
2017-02-23T11:48:30.961Z,25.42
2017-02-23T11:49:30.974Z,25.39
2017-02-23T11:50:31.081Z,25.45
2017-02-23T11:51:31.059Z,25.45
2017-02-23T11:52:30.985Z,25.43
2017-02-23T11:53:30.594Z,25.51
2017-02-23T11:54:31.010Z,25.39
2017-02-23T11:55:31.007Z,25.46
2017-02-23T11:56:30.628Z,25.5
2017-02-23T11:57:31.073Z,25.55
2017-02-23T11:58:30.757Z,25.46
2017-02-23T11:59:31.086Z,25.42
2017-02-23T12:00:30.647Z,25.51
2017-02-23T12:01:31.104Z,25.43
2017-02-23T12:02:31.121Z,25.43
2017-02-23T12:03:31.179Z,25.55
2017-02-23T12:04:31.263Z,25.55
2017-02-23T12:05:31.083Z,25.52
2017-02-23T12:06:31.113Z,25.46
2017-02-23T12:07:31.171Z,25.46
2017-02-23T12:08:31.153Z,25.51
2017-02-23T12:09:31.071Z,25.54
2017-02-23T12:10:30.721Z,25.65
2017-02-23T12:11:31.184Z,25.6
2017-02-23T12:12:31.142Z,25.52
2017-02-23T12:13:31.145Z,25.55
2017-02-23T12:14:31.240Z,25.58
2017-02-23T12:15:31.204Z,25.6
2017-02-23T12:16:31.232Z,25.52
2017-02-23T12:17:30.822Z,25.5
2017-02-23T12:18:31.279Z,25.4
2017-02-23T12:19:31.236Z,25.38
2017-02-23T12:20:31.308Z,25.4
2017-02-23T12:21:31.260Z,25.45
2017-02-23T12:22:30.829Z,25.43
2017-02-23T12:23:30.883Z,25.43
2017-02-23T12:24:31.270Z,25.39
2017-02-23T12:25:30.887Z,25.36
2017-02-23T12:26:30.890Z,25.39
2017-02-23T12:27:30.966Z,25.47
2017-02-23T12:28:31.305Z,25.36
2017-02-23T12:29:31.016Z,25.36
2017-02-23T12:30:31.277Z,25.43
2017-02-23T12:31:31.273Z,25.36
2017-02-23T12:32:31.299Z,25.35
2017-02-23T12:33:31.360Z,25.39
2017-02-23T12:34:31.346Z,25.4
2017-02-23T12:35:31.313Z,25.38
2017-02-23T12:36:31.360Z,25.39
2017-02-23T12:37:30.929Z,25.43
2017-02-23T12:38:31.394Z,25.38
2017-02-23T12:39:31.444Z,25.46
2017-02-23T12:40:31.460Z,25.45
2017-02-23T12:41:31.452Z,25.46
2017-02-23T12:42:31.363Z,25.43
2017-02-23T12:43:31.431Z,25.43
2017-02-23T12:44:31.376Z,25.36
2017-02-23T12:45:31.385Z,25.42
2017-02-23T12:46:31.388Z,25.38
2017-02-23T12:47:31.498Z,25.35
2017-02-23T12:48:31.404Z,25.42
2017-02-23T12:49:31.466Z,25.39
2017-02-23T12:50:31.431Z,25.39
2017-02-23T12:51:31.530Z,25.47
2017-02-23T12:52:31.545Z,25.46
2017-02-23T12:53:31.449Z,25.54
2017-02-23T12:54:31.497Z,25.5
2017-02-23T12:55:31.449Z,25.5